sensor_id;sensor_type;location;lat;lon;timestamp;pressure;altitude;pressure_sealevel;temperature;humidity
74079;BME280;62437;51.544;-3.276;2023-03-01T00:01:20;102740.91;;;4.55;64.20
74079;BME280;62437;51.544;-3.276;2023-03-01T00:03:48;102748.76;;;4.12;65.13
74079;BME280;62437;51.544;-3.276;2023-03-01T00:06:14;102749.31;;;3.56;62.17
74079;BME280;62437;51.544;-3.276;2023-03-01T00:08:40;102747.73;;;3.55;62.48
74079;BME280;62437;51.544;-3.276;2023-03-01T00:11:01;102744.66;;;4.49;64.66
74079;BME280;62437;51.544;-3.276;2023-03-01T00:13:32;102747.42;;;3.47;62.13
74079;BME280;62437;51.544;-3.276;2023-03-01T00:16:02;102748.43;;;4.10;62.70
74079;BME280;62437;51.544;-3.276;2023-03-01T00:18:17;102744.69;;;3.49;62.47
74079;BME280;62437;51.544;-3.276;2023-03-01T00:20:50;102744.28;;;3.61;66.02
74079;BME280;62437;51.544;-3.276;2023-03-01T00:23:09;102735.79;;;4.01;61.28
74079;BME280;62437;51.544;-3.276;2023-03-01T00:25:42;102746.12;;;3.67;62.80
74079;BME280;62437;51.544;-3.276;2023-03-01T00:28:05;102746.60;;;3.82;64.88
74079;BME280;62437;51.544;-3.276;2023-03-01T00:30:31;102746.62;;;3.12;65.17
74079;BME280;62437;51.544;-3.276;2023-03-01T00:32:57;102747.37;;;3.68;65.17
74079;BME280;62437;51.544;-3.276;2023-03-01T00:35:22;102747.83;;;3.22;62.34
74079;BME280;62437;51.544;-3.276;2023-03-01T00:37:48;102739.46;;;4.66;62.60
74079;BME280;62437;51.544;-3.276;2023-03-01T00:40:17;102743.10;;;4.37;61.13
74079;BME280;62437;51.544;-3.276;2023-03-01T00:42:40;102745.66;;;4.38;64.33
74079;BME280;62437;51.544;-3.276;2023-03-01T00:45:07;102745.52;;;3.20;63.93
74079;BME280;62437;51.544;-3.276;2023-03-01T00:47:30;102742.05;;;4.26;65.61
74079;BME280;62437;51.544;-3.276;2023-03-01T00:49:57;102745.95;;;3.03;65.38
74079;BME280;62437;51.544;-3.276;2023-03-01T00:52:23;102746.55;;;3.30;66.98
74079;BME280;62437;51.544;-3.276;2023-03-01T00:54:52;102746.13;;;2.46;67.86
74079;BME280;62437;51.544;-3.276;2023-03-01T00:57:14;102736.43;;;2.76;67.78
74079;BME280;62437;51.544;-3.276;2023-03-01T00:59:35;102740.70;;;3.60;67.24
74079;BME280;62437;51.544;-3.276;2023-03-01T01:02:09;102740.68;;;3.08;66.48
74079;BME280;62437;51.544;-3.276;2023-03-01T01:04:34;102740.85;;;2.90;67.10
74079;BME280;62437;51.544;-3.276;2023-03-01T01:06:53;102744.84;;;3.66;66.43
74079;BME280;62437;51.544;-3.276;2023-03-01T01:09:23;102742.58;;;2.85;68.08
74079;BME280;62437;51.544;-3.276;2023-03-01T01:11:45;102750.09;;;2.40;70.01
74079;BME280;62437;51.544;-3.276;2023-03-01T01:14:15;102756.72;;;3.29;66.36
74079;BME280;62437;51.544;-3.276;2023-03-01T01:16:40;102747.15;;;4.10;64.81
74079;BME280;62437;51.544;-3.276;2023-03-01T01:19:10;102743.50;;;4.32;63.75
74079;BME280;62437;51.544;-3.276;2023-03-01T01:21:27;102746.76;;;4.12;65.31
74079;BME280;62437;51.544;-3.276;2023-03-01T01:23:58;102740.20;;;4.39;64.86
74079;BME280;62437;51.544;-3.276;2023-03-01T01:26:28;102748.25;;;3.25;67.05
74079;BME280;62437;51.544;-3.276;2023-03-01T01:28:49;102746.46;;;2.70;67.01
74079;BME280;62437;51.544;-3.276;2023-03-01T01:31:10;102747.11;;;2.03;71.27
74079;BME280;62437;51.544;-3.276;2023-03-01T01:33:41;102743.05;;;3.26;67.79
74079;BME280;62437;51.544;-3.276;2023-03-01T01:36:01;102742.41;;;2.61;68.45
74079;BME280;62437;51.544;-3.276;2023-03-01T01:38:32;102738.91;;;4.44;64.76
74079;BME280;62437;51.544;-3.276;2023-03-01T01:40:58;102748.40;;;2.09;70.98
74079;BME280;62437;51.544;-3.276;2023-03-01T01:43:27;102739.72;;;2.21;70.23
74079;BME280;62437;51.544;-3.276;2023-03-01T01:45:44;102742.65;;;3.33;67.00
74079;BME280;62437;51.544;-3.276;2023-03-01T01:48:20;102736.59;;;3.88;66.90
74079;BME280;62437;51.544;-3.276;2023-03-01T01:50:44;102731.09;;;2.29;69.18
74079;BME280;62437;51.544;-3.276;2023-03-01T01:53:11;102722.43;;;5.10;62.06
74079;BME280;62437;51.544;-3.276;2023-03-01T01:55:32;102720.01;;;4.62;63.17
74079;BME280;62437;51.544;-3.276;2023-03-01T01:58:04;102716.60;;;4.81;64.10
74079;BME280;62437;51.544;-3.276;2023-03-01T02:00:25;102712.26;;;4.05;66.16
74079;BME280;62437;51.544;-3.276;2023-03-01T02:02:54;102714.71;;;3.41;66.91
74079;BME280;62437;51.544;-3.276;2023-03-01T02:05:15;102709.72;;;5.04;63.40
74079;BME280;62437;51.544;-3.276;2023-03-01T02:07:42;102709.31;;;4.78;63.04
74079;BME280;62437;51.544;-3.276;2023-03-01T02:10:02;102708.26;;;4.16;64.57
74079;BME280;62437;51.544;-3.276;2023-03-01T02:12:33;102707.53;;;3.94;65.18
74079;BME280;62437;51.544;-3.276;2023-03-01T02:15:01;102710.47;;;2.43;70.09
74079;BME280;62437;51.544;-3.276;2023-03-01T02:17:19;102708.88;;;2.20;71.09
74079;BME280;62437;51.544;-3.276;2023-03-01T02:20:01;102713.72;;;3.87;67.07
74079;BME280;62437;51.544;-3.276;2023-03-01T02:22:18;102711.96;;;2.84;69.68
74079;BME280;62437;51.544;-3.276;2023-03-01T02:24:48;102708.21;;;2.92;68.81
74079;BME280;62437;51.544;-3.276;2023-03-01T02:27:07;102700.71;;;2.82;69.54
74079;BME280;62437;51.544;-3.276;2023-03-01T02:29:36;102690.33;;;2.27;73.71
74079;BME280;62437;51.544;-3.276;2023-03-01T02:32:01;102692.41;;;1.94;72.55
74079;BME280;62437;51.544;-3.276;2023-03-01T02:34:22;102693.62;;;1.42;75.40
74079;BME280;62437;51.544;-3.276;2023-03-01T02:36:56;102685.86;;;1.34;74.85
74079;BME280;62437;51.544;-3.276;2023-03-01T02:39:18;102689.77;;;1.39;75.53
74079;BME280;62437;51.544;-3.276;2023-03-01T02:41:45;102688.75;;;1.74;76.06
74079;BME280;62437;51.544;-3.276;2023-03-01T02:44:07;102686.30;;;1.74;75.13
74079;BME280;62437;51.544;-3.276;2023-03-01T02:46:33;102688.61;;;2.17;73.45
74079;BME280;62437;51.544;-3.276;2023-03-01T02:48:55;102689.07;;;1.22;75.54
74079;BME280;62437;51.544;-3.276;2023-03-01T02:51:41;102686.74;;;1.67;74.55
74079;BME280;62437;51.544;-3.276;2023-03-01T02:53:55;102681.82;;;2.01;72.36
74079;BME280;62437;51.544;-3.276;2023-03-01T02:56:16;102679.18;;;1.36;73.35
74079;BME280;62437;51.544;-3.276;2023-03-01T02:58:43;102680.20;;;2.18;72.84
74079;BME280;62437;51.544;-3.276;2023-03-01T03:01:03;102677.95;;;2.80;68.97
74079;BME280;62437;51.544;-3.276;2023-03-01T03:03:33;102671.98;;;3.39;68.20
74079;BME280;62437;51.544;-3.276;2023-03-01T03:05:59;102678.63;;;1.62;71.80
74079;BME280;62437;51.544;-3.276;2023-03-01T03:08:20;102679.41;;;1.68;71.59
74079;BME280;62437;51.544;-3.276;2023-03-01T03:10:51;102680.74;;;1.37;74.00
74079;BME280;62437;51.544;-3.276;2023-03-01T03:13:16;102682.47;;;1.36;73.95
74079;BME280;62437;51.544;-3.276;2023-03-01T03:15:43;102681.47;;;0.82;76.69
74079;BME280;62437;51.544;-3.276;2023-03-01T03:18:10;102674.39;;;1.91;73.27
74079;BME280;62437;51.544;-3.276;2023-03-01T03:20:34;102675.89;;;1.88;72.63
74079;BME280;62437;51.544;-3.276;2023-03-01T03:23:00;102673.78;;;3.09;70.02
74079;BME280;62437;51.544;-3.276;2023-03-01T03:25:30;102670.23;;;2.72;69.31
74079;BME280;62437;51.544;-3.276;2023-03-01T03:27:52;102666.77;;;2.42;69.39
74079;BME280;62437;51.544;-3.276;2023-03-01T03:30:19;102668.36;;;1.74;72.50
74079;BME280;62437;51.544;-3.276;2023-03-01T03:32:47;102665.01;;;2.76;70.64
74079;BME280;62437;51.544;-3.276;2023-03-01T03:35:10;102662.86;;;1.93;72.96
74079;BME280;62437;51.544;-3.276;2023-03-01T03:37:29;102662.63;;;1.37;73.56
74079;BME280;62437;51.544;-3.276;2023-03-01T03:40:03;102657.44;;;1.42;73.82
74079;BME280;62437;51.544;-3.276;2023-03-01T03:42:26;102658.48;;;1.81;73.59
74079;BME280;62437;51.544;-3.276;2023-03-01T03:44:51;102659.14;;;1.21;74.45
74079;BME280;62437;51.544;-3.276;2023-03-01T03:47:20;102655.87;;;1.31;76.06
74079;BME280;62437;51.544;-3.276;2023-03-01T03:49:46;102655.11;;;1.32;73.80
74079;BME280;62437;51.544;-3.276;2023-03-01T03:52:09;102647.93;;;1.61;74.49
74079;BME280;62437;51.544;-3.276;2023-03-01T03:54:34;102648.51;;;1.14;76.85
74079;BME280;62437;51.544;-3.276;2023-03-01T03:56:55;102642.45;;;2.45;72.59
74079;BME280;62437;51.544;-3.276;2023-03-01T03:59:26;102637.75;;;1.71;74.02
74079;BME280;62437;51.544;-3.276;2023-03-01T04:01:52;102636.12;;;1.03;75.05
74079;BME280;62437;51.544;-3.276;2023-03-01T04:04:20;102644.35;;;2.18;73.07
74079;BME280;62437;51.544;-3.276;2023-03-01T04:06:43;102641.04;;;1.67;73.88
74079;BME280;62437;51.544;-3.276;2023-03-01T04:09:09;102647.58;;;2.24;71.54
74079;BME280;62437;51.544;-3.276;2023-03-01T04:11:35;102648.46;;;2.87;71.18
74079;BME280;62437;51.544;-3.276;2023-03-01T04:14:00;102650.14;;;1.45;74.12
74079;BME280;62437;51.544;-3.276;2023-03-01T04:16:26;102651.78;;;2.73;70.81
74079;BME280;62437;51.544;-3.276;2023-03-01T04:18:55;102650.86;;;2.69;70.87
74079;BME280;62437;51.544;-3.276;2023-03-01T04:21:21;102646.35;;;1.71;74.22
74079;BME280;62437;51.544;-3.276;2023-03-01T04:23:44;102640.80;;;2.06;72.84
74079;BME280;62437;51.544;-3.276;2023-03-01T04:26:09;102640.37;;;1.10;77.70
74079;BME280;62437;51.544;-3.276;2023-03-01T04:28:40;102634.65;;;2.29;74.42
74079;BME280;62437;51.544;-3.276;2023-03-01T04:31:04;102635.26;;;1.86;74.26
74079;BME280;62437;51.544;-3.276;2023-03-01T04:33:22;102630.59;;;1.46;75.86
74079;BME280;62437;51.544;-3.276;2023-03-01T04:35:55;102631.86;;;1.45;74.95
74079;BME280;62437;51.544;-3.276;2023-03-01T04:38:19;102628.74;;;1.29;76.09
74079;BME280;62437;51.544;-3.276;2023-03-01T04:40:44;102629.88;;;1.49;74.48
74079;BME280;62437;51.544;-3.276;2023-03-01T04:43:13;102626.57;;;2.84;71.05
74079;BME280;62437;51.544;-3.276;2023-03-01T04:45:36;102621.71;;;2.28;73.13
74079;BME280;62437;51.544;-3.276;2023-03-01T04:47:56;102620.05;;;1.74;72.96
74079;BME280;62437;51.544;-3.276;2023-03-01T04:50:31;102614.21;;;2.80;70.25
74079;BME280;62437;51.544;-3.276;2023-03-01T04:52:48;102615.98;;;2.13;72.47
74079;BME280;62437;51.544;-3.276;2023-03-01T04:55:19;102607.72;;;3.23;68.90
74079;BME280;62437;51.544;-3.276;2023-03-01T04:57:45;102607.41;;;3.51;67.86
74079;BME280;62437;51.544;-3.276;2023-03-01T05:00:14;102602.39;;;4.04;65.56
74079;BME280;62437;51.544;-3.276;2023-03-01T05:02:36;102604.30;;;3.20;66.68
74079;BME280;62437;51.544;-3.276;2023-03-01T05:04:56;102604.44;;;3.53;67.71
74079;BME280;62437;51.544;-3.276;2023-03-01T05:07:30;102599.83;;;3.41;67.56
74079;BME280;62437;51.544;-3.276;2023-03-01T05:09:53;102603.84;;;2.62;68.81
74079;BME280;62437;51.544;-3.276;2023-03-01T05:12:19;102600.35;;;3.32;67.47
74079;BME280;62437;51.544;-3.276;2023-03-01T05:14:48;102597.58;;;3.89;66.03
74079;BME280;62437;51.544;-3.276;2023-03-01T05:17:05;102597.73;;;2.72;70.25
74079;BME280;62437;51.544;-3.276;2023-03-01T05:19:36;102600.49;;;2.25;70.08
74079;BME280;62437;51.544;-3.276;2023-03-01T05:22:05;102595.24;;;2.68;70.89
74079;BME280;62437;51.544;-3.276;2023-03-01T05:24:23;102592.85;;;3.90;67.02
74079;BME280;62437;51.544;-3.276;2023-03-01T05:26:53;102592.26;;;4.35;64.63
74079;BME280;62437;51.544;-3.276;2023-03-01T05:29:20;102588.75;;;3.64;65.57
74079;BME280;62437;51.544;-3.276;2023-03-01T05:31:49;102594.05;;;2.43;70.55
74079;BME280;62437;51.544;-3.276;2023-03-01T05:34:11;102591.32;;;1.67;72.85
74079;BME280;62437;51.544;-3.276;2023-03-01T05:36:31;102593.91;;;2.20;72.42
74079;BME280;62437;51.544;-3.276;2023-03-01T05:39:05;102593.06;;;2.39;70.83
74079;BME280;62437;51.544;-3.276;2023-03-01T05:41:23;102599.07;;;1.85;71.10
74079;BME280;62437;51.544;-3.276;2023-03-01T05:43:49;102596.13;;;1.17;74.22
74079;BME280;62437;51.544;-3.276;2023-03-01T05:46:23;102586.01;;;1.94;72.03
74079;BME280;62437;51.544;-3.276;2023-03-01T05:48:45;102586.96;;;3.56;67.31
74079;BME280;62437;51.544;-3.276;2023-03-01T05:51:06;102583.49;;;3.17;67.51
74079;BME280;62437;51.544;-3.276;2023-03-01T05:53:40;102589.15;;;2.91;67.43
74079;BME280;62437;51.544;-3.276;2023-03-01T05:56:03;102593.22;;;2.52;68.95
74079;BME280;62437;51.544;-3.276;2023-03-01T05:58:28;102592.15;;;2.58;68.94
74079;BME280;62437;51.544;-3.276;2023-03-01T06:00:49;102585.39;;;1.75;71.51
74079;BME280;62437;51.544;-3.276;2023-03-01T06:03:16;102587.99;;;2.51;68.44
74079;BME280;62437;51.544;-3.276;2023-03-01T06:05:46;102586.59;;;2.64;69.10
74079;BME280;62437;51.544;-3.276;2023-03-01T06:08:07;102583.60;;;2.15;67.88
74079;BME280;62437;51.544;-3.276;2023-03-01T06:10:40;102585.86;;;2.04;70.44
74079;BME280;62437;51.544;-3.276;2023-03-01T06:13:04;102592.01;;;2.27;68.55
74079;BME280;62437;51.544;-3.276;2023-03-01T06:15:24;102583.63;;;3.58;65.75
74079;BME280;62437;51.544;-3.276;2023-03-01T06:17:57;102586.88;;;1.61;68.85
74079;BME280;62437;51.544;-3.276;2023-03-01T06:20:17;102585.57;;;2.17;67.97
74079;BME280;62437;51.544;-3.276;2023-03-01T06:22:47;102582.23;;;3.12;67.17
74079;BME280;62437;51.544;-3.276;2023-03-01T06:25:18;102574.83;;;3.60;64.97
74079;BME280;62437;51.544;-3.276;2023-03-01T06:27:38;102580.53;;;2.10;67.74
74079;BME280;62437;51.544;-3.276;2023-03-01T06:30:04;102579.68;;;1.74;68.58
74079;BME280;62437;51.544;-3.276;2023-03-01T06:32:29;102579.02;;;2.22;67.26
74079;BME280;62437;51.544;-3.276;2023-03-01T06:34:59;102579.15;;;2.80;67.69
74079;BME280;62437;51.544;-3.276;2023-03-01T06:37:16;102577.73;;;2.19;68.34
74079;BME280;62437;51.544;-3.276;2023-03-01T06:39:46;102577.24;;;3.04;67.22
74079;BME280;62437;51.544;-3.276;2023-03-01T06:42:15;102578.30;;;3.78;65.96
74079;BME280;62437;51.544;-3.276;2023-03-01T06:44:38;102577.75;;;3.59;64.61
74079;BME280;62437;51.544;-3.276;2023-03-01T06:46:59;102581.52;;;4.40;62.45
74079;BME280;62437;51.544;-3.276;2023-03-01T06:49:24;102576.74;;;5.04;60.07
74079;BME280;62437;51.544;-3.276;2023-03-01T06:51:55;102586.62;;;2.73;67.30
74079;BME280;62437;51.544;-3.276;2023-03-01T06:54:21;102586.48;;;3.34;67.14
74079;BME280;62437;51.544;-3.276;2023-03-01T06:56:50;102586.56;;;4.19;64.51
74079;BME280;62437;51.544;-3.276;2023-03-01T06:59:13;102588.55;;;3.18;66.50
74079;BME280;62437;51.544;-3.276;2023-03-01T07:01:38;102594.78;;;3.02;66.21
74079;BME280;62437;51.544;-3.276;2023-03-01T07:04:04;102590.15;;;3.27;65.55
74079;BME280;62437;51.544;-3.276;2023-03-01T07:06:33;102591.29;;;3.92;63.99
74079;BME280;62437;51.544;-3.276;2023-03-01T07:08:56;102595.94;;;4.19;62.47
74079;BME280;62437;51.544;-3.276;2023-03-01T07:11:21;102593.73;;;4.40;62.98
74079;BME280;62437;51.544;-3.276;2023-03-01T07:13:42;102597.06;;;4.03;62.56
74079;BME280;62437;51.544;-3.276;2023-03-01T07:16:13;102599.81;;;4.16;63.25
74079;BME280;62437;51.544;-3.276;2023-03-01T07:18:38;102593.66;;;5.58;59.23
74079;BME280;62437;51.544;-3.276;2023-03-01T07:21:09;102608.26;;;2.17;67.01
74079;BME280;62437;51.544;-3.276;2023-03-01T07:23:30;102603.02;;;4.99;61.53
74079;BME280;62437;51.544;-3.276;2023-03-01T07:25:56;102614.04;;;1.80;68.35
74079;BME280;62437;51.544;-3.276;2023-03-01T07:28:25;102615.74;;;2.88;68.76
74079;BME280;62437;51.544;-3.276;2023-03-01T07:30:47;102616.43;;;1.77;70.96
74079;BME280;62437;51.544;-3.276;2023-03-01T07:33:08;102615.96;;;2.43;68.43
74079;BME280;62437;51.544;-3.276;2023-03-01T07:35:34;102615.08;;;2.75;67.29
74079;BME280;62437;51.544;-3.276;2023-03-01T07:38:00;102611.32;;;4.10;64.91
74079;BME280;62437;51.544;-3.276;2023-03-01T07:40:25;102619.55;;;2.65;68.48
74079;BME280;62437;51.544;-3.276;2023-03-01T07:42:56;102620.37;;;2.59;68.27
74079;BME280;62437;51.544;-3.276;2023-03-01T07:45:26;102622.07;;;3.23;67.10
74079;BME280;62437;51.544;-3.276;2023-03-01T07:47:50;102629.38;;;2.93;66.51
74079;BME280;62437;51.544;-3.276;2023-03-01T07:50:14;102627.11;;;2.66;67.85
74079;BME280;62437;51.544;-3.276;2023-03-01T07:52:46;102634.50;;;1.15;74.08
74079;BME280;62437;51.544;-3.276;2023-03-01T07:55:00;102626.20;;;1.41;74.30
74079;BME280;62437;51.544;-3.276;2023-03-01T07:57:31;102632.72;;;0.94;75.24
74079;BME280;62437;51.544;-3.276;2023-03-01T08:00:00;102633.46;;;1.14;75.59
74079;BME280;62437;51.544;-3.276;2023-03-01T08:02:22;102631.77;;;2.39;71.75
74079;BME280;62437;51.544;-3.276;2023-03-01T08:04:48;102637.22;;;1.31;73.98
74079;BME280;62437;51.544;-3.276;2023-03-01T08:07:15;102640.19;;;1.79;72.87
74079;BME280;62437;51.544;-3.276;2023-03-01T08:09:40;102644.76;;;3.14;70.13
74079;BME280;62437;51.544;-3.276;2023-03-01T08:12:06;102645.90;;;2.03;71.25
74079;BME280;62437;51.544;-3.276;2023-03-01T08:14:31;102648.07;;;2.54;70.29
74079;BME280;62437;51.544;-3.276;2023-03-01T08:17:00;102654.95;;;2.89;70.75
74079;BME280;62437;51.544;-3.276;2023-03-01T08:19:18;102660.60;;;3.46;68.02
74079;BME280;62437;51.544;-3.276;2023-03-01T08:21:43;102662.72;;;2.29;72.25
74079;BME280;62437;51.544;-3.276;2023-03-01T08:24:18;102657.57;;;3.45;68.13
74079;BME280;62437;51.544;-3.276;2023-03-01T08:26:40;102657.07;;;2.42;70.90
74079;BME280;62437;51.544;-3.276;2023-03-01T08:29:06;102659.24;;;2.57;70.08
74079;BME280;62437;51.544;-3.276;2023-03-01T08:31:36;102656.75;;;2.32;70.70
74079;BME280;62437;51.544;-3.276;2023-03-01T08:34:01;102657.96;;;2.41;72.67
74079;BME280;62437;51.544;-3.276;2023-03-01T08:36:25;102652.29;;;3.06;71.20
74079;BME280;62437;51.544;-3.276;2023-03-01T08:38:49;102649.63;;;3.13;70.68
74079;BME280;62437;51.544;-3.276;2023-03-01T08:41:18;102645.29;;;3.75;66.85
74079;BME280;62437;51.544;-3.276;2023-03-01T08:43:35;102645.35;;;3.20;68.48
74079;BME280;62437;51.544;-3.276;2023-03-01T08:46:06;102637.46;;;4.16;64.73
74079;BME280;62437;51.544;-3.276;2023-03-01T08:48:32;102637.17;;;3.28;67.00
74079;BME280;62437;51.544;-3.276;2023-03-01T08:51:08;102633.82;;;3.04;70.43
74079;BME280;62437;51.544;-3.276;2023-03-01T08:53:23;102630.13;;;3.71;67.83
74079;BME280;62437;51.544;-3.276;2023-03-01T08:55:53;102631.48;;;2.22;71.41
74079;BME280;62437;51.544;-3.276;2023-03-01T08:58:15;102632.23;;;2.49;71.47
74079;BME280;62437;51.544;-3.276;2023-03-01T09:00:40;102635.58;;;1.71;70.71
74079;BME280;62437;51.544;-3.276;2023-03-01T09:03:09;102637.64;;;2.02;70.43
74079;BME280;62437;51.544;-3.276;2023-03-01T09:05:33;102631.52;;;1.89;72.80
74079;BME280;62437;51.544;-3.276;2023-03-01T09:07:58;102628.36;;;1.80;71.20
74079;BME280;62437;51.544;-3.276;2023-03-01T09:10:27;102630.04;;;2.54;71.45
74079;BME280;62437;51.544;-3.276;2023-03-01T09:12:44;102631.27;;;2.81;71.12
74079;BME280;62437;51.544;-3.276;2023-03-01T09:15:15;102626.08;;;2.14;71.74
74079;BME280;62437;51.544;-3.276;2023-03-01T09:17:41;102622.18;;;1.56;71.95
74079;BME280;62437;51.544;-3.276;2023-03-01T09:20:04;102614.71;;;2.32;71.99
74079;BME280;62437;51.544;-3.276;2023-03-01T09:22:33;102613.30;;;3.07;70.82
74079;BME280;62437;51.544;-3.276;2023-03-01T09:24:58;102618.25;;;2.09;70.53
74079;BME280;62437;51.544;-3.276;2023-03-01T09:27:18;102614.43;;;2.65;70.88
74079;BME280;62437;51.544;-3.276;2023-03-01T09:29:50;102607.69;;;3.53;68.00
74079;BME280;62437;51.544;-3.276;2023-03-01T09:32:16;102614.00;;;3.92;66.88
74079;BME280;62437;51.544;-3.276;2023-03-01T09:34:44;102615.31;;;2.27;69.21
74079;BME280;62437;51.544;-3.276;2023-03-01T09:37:07;102618.05;;;3.02;70.70
74079;BME280;62437;51.544;-3.276;2023-03-01T09:39:32;102610.90;;;3.48;67.58
74079;BME280;62437;51.544;-3.276;2023-03-01T09:42:03;102611.14;;;3.45;69.61
74079;BME280;62437;51.544;-3.276;2023-03-01T09:44:29;102607.24;;;3.64;68.08
74079;BME280;62437;51.544;-3.276;2023-03-01T09:46:50;102606.32;;;3.58;70.05
74079;BME280;62437;51.544;-3.276;2023-03-01T09:49:14;102603.32;;;3.33;67.35
74079;BME280;62437;51.544;-3.276;2023-03-01T09:51:54;102614.96;;;2.73;67.69
74079;BME280;62437;51.544;-3.276;2023-03-01T09:54:10;102603.26;;;3.61;66.81
74079;BME280;62437;51.544;-3.276;2023-03-01T09:56:36;102616.86;;;2.56;69.60
74079;BME280;62437;51.544;-3.276;2023-03-01T09:58:58;102612.92;;;2.39;70.70
74079;BME280;62437;51.544;-3.276;2023-03-01T10:01:31;102605.24;;;2.68;72.78
74079;BME280;62437;51.544;-3.276;2023-03-01T10:04:02;102593.57;;;2.25;72.33
74079;BME280;62437;51.544;-3.276;2023-03-01T10:06:15;102589.56;;;3.24;70.69
74079;BME280;62437;51.544;-3.276;2023-03-01T10:08:46;102592.12;;;3.25;68.04
74079;BME280;62437;51.544;-3.276;2023-03-01T10:11:03;102585.85;;;2.67;67.53
74079;BME280;62437;51.544;-3.276;2023-03-01T10:13:45;102577.66;;;4.43;66.55
74079;BME280;62437;51.544;-3.276;2023-03-01T10:16:03;102582.18;;;4.26;65.95
74079;BME280;62437;51.544;-3.276;2023-03-01T10:18:26;102582.54;;;4.17;66.51
74079;BME280;62437;51.544;-3.276;2023-03-01T10:20:48;102580.22;;;3.87;66.66
74079;BME280;62437;51.544;-3.276;2023-03-01T10:23:18;102580.28;;;3.56;66.04
74079;BME280;62437;51.544;-3.276;2023-03-01T10:25:52;102588.55;;;2.90;66.11
74079;BME280;62437;51.544;-3.276;2023-03-01T10:28:10;102584.31;;;3.24;69.18
74079;BME280;62437;51.544;-3.276;2023-03-01T10:30:39;102589.37;;;2.74;69.39
74079;BME280;62437;51.544;-3.276;2023-03-01T10:32:58;102578.96;;;2.56;71.95
74079;BME280;62437;51.544;-3.276;2023-03-01T10:35:26;102577.40;;;2.90;67.40
74079;BME280;62437;51.544;-3.276;2023-03-01T10:38:02;102574.52;;;2.98;69.73
74079;BME280;62437;51.544;-3.276;2023-03-01T10:40:11;102581.25;;;3.02;67.36
74079;BME280;62437;51.544;-3.276;2023-03-01T10:42:47;102562.16;;;3.17;68.81
74079;BME280;62437;51.544;-3.276;2023-03-01T10:45:23;102555.11;;;3.45;68.09
74079;BME280;62437;51.544;-3.276;2023-03-01T10:47:33;102558.12;;;4.29;66.89
74079;BME280;62437;51.544;-3.276;2023-03-01T10:50:01;102558.54;;;3.87;68.07
74079;BME280;62437;51.544;-3.276;2023-03-01T10:52:31;102554.00;;;3.18;67.62
74079;BME280;62437;51.544;-3.276;2023-03-01T10:54:51;102545.73;;;3.00;67.03
74079;BME280;62437;51.544;-3.276;2023-03-01T10:59:42;102537.48;;;4.05;69.13
74079;BME280;62437;51.544;-3.276;2023-03-01T11:02:20;102539.08;;;3.61;67.26
74079;BME280;62437;51.544;-3.276;2023-03-01T11:04:33;102525.32;;;3.19;67.53
74079;BME280;62437;51.544;-3.276;2023-03-01T11:06:59;102527.37;;;3.04;67.04
74079;BME280;62437;51.544;-3.276;2023-03-01T11:09:32;102518.33;;;3.38;66.43
74079;BME280;62437;51.544;-3.276;2023-03-01T11:11:46;102520.27;;;3.09;70.26
74079;BME280;62437;51.544;-3.276;2023-03-01T11:14:18;102526.47;;;3.02;67.45
74079;BME280;62437;51.544;-3.276;2023-03-01T11:16:38;102518.59;;;4.35;67.91
74079;BME280;62437;51.544;-3.276;2023-03-01T11:19:15;102514.71;;;3.66;69.76
74079;BME280;62437;51.544;-3.276;2023-03-01T11:21:30;102516.16;;;4.34;66.51
74079;BME280;62437;51.544;-3.276;2023-03-01T11:24:01;102519.41;;;4.59;66.08
74079;BME280;62437;51.544;-3.276;2023-03-01T11:26:25;102523.41;;;3.65;65.70
74079;BME280;62437;51.544;-3.276;2023-03-01T11:28:56;102525.17;;;3.19;66.79
74079;BME280;62437;51.544;-3.276;2023-03-01T11:31:16;102521.66;;;2.64;65.82
74079;BME280;62437;51.544;-3.276;2023-03-01T11:33:49;102524.11;;;3.20;66.75
74079;BME280;62437;51.544;-3.276;2023-03-01T11:36:08;102509.72;;;2.99;65.99
74079;BME280;62437;51.544;-3.276;2023-03-01T11:38:35;102521.90;;;2.22;68.18
74079;BME280;62437;51.544;-3.276;2023-03-01T11:41:06;102511.58;;;2.95;69.32
74079;BME280;62437;51.544;-3.276;2023-03-01T11:43:30;102511.60;;;3.50;69.59
74079;BME280;62437;51.544;-3.276;2023-03-01T11:46:00;102508.43;;;4.36;67.09
74079;BME280;62437;51.544;-3.276;2023-03-01T11:48:28;102500.34;;;4.05;64.38
74079;BME280;62437;51.544;-3.276;2023-03-01T11:50:42;102502.29;;;3.09;68.73
74079;BME280;62437;51.544;-3.276;2023-03-01T11:53:25;102495.17;;;3.45;69.13
74079;BME280;62437;51.544;-3.276;2023-03-01T11:55:46;102491.78;;;5.28;64.92
74079;BME280;62437;51.544;-3.276;2023-03-01T11:58:15;102487.48;;;4.76;66.52
74079;BME280;62437;51.544;-3.276;2023-03-01T12:00:37;102482.13;;;5.04;65.50
74079;BME280;62437;51.544;-3.276;2023-03-01T12:07:50;102469.64;;;5.19;65.25
74079;BME280;62437;51.544;-3.276;2023-03-01T12:10:21;102460.27;;;5.13;63.59
74079;BME280;62437;51.544;-3.276;2023-03-01T12:12:49;102455.19;;;5.05;64.43
74079;BME280;62437;51.544;-3.276;2023-03-01T12:15:11;102448.77;;;5.15;64.98
74079;BME280;62437;51.544;-3.276;2023-03-01T12:22:29;102451.27;;;3.52;65.87
74079;BME280;62437;51.544;-3.276;2023-03-01T12:27:26;102444.51;;;2.50;73.53
74079;BME280;62437;51.544;-3.276;2023-03-01T12:29:34;102442.14;;;3.30;73.26
74079;BME280;62437;51.544;-3.276;2023-03-01T12:32:09;102435.46;;;2.74;69.40
74079;BME280;62437;51.544;-3.276;2023-03-01T12:34:42;102434.75;;;3.18;69.53
74079;BME280;62437;51.544;-3.276;2023-03-01T12:37:11;102429.28;;;2.75;71.86
74079;BME280;62437;51.544;-3.276;2023-03-01T12:39:26;102427.93;;;4.30;69.02
74079;BME280;62437;51.544;-3.276;2023-03-01T12:41:48;102417.00;;;4.26;67.19
74079;BME280;62437;51.544;-3.276;2023-03-01T12:44:23;102411.86;;;4.31;69.40
74079;BME280;62437;51.544;-3.276;2023-03-01T12:46:41;102402.15;;;5.28;66.53
74079;BME280;62437;51.544;-3.276;2023-03-01T12:49:06;102395.40;;;4.45;64.57
74079;BME280;62437;51.544;-3.276;2023-03-01T12:51:30;102403.67;;;3.78;65.41
74079;BME280;62437;51.544;-3.276;2023-03-01T12:53:53;102395.82;;;2.73;69.60
74079;BME280;62437;51.544;-3.276;2023-03-01T12:56:20;102393.36;;;3.24;70.22